Time;durP1;ratioP1;P1;durP2;ratioP2;P2;SDS_P1;SDS_P2;PMS_P1;PMS_P2;Temp;Humidity;BMP_temperature;BMP_pressure;BME280_temperature;BME280_humidity;BME280_pressure;Samples;Min_cycle;Max_cycle;Signal;HPM_P1;HPM_P2
2022/09/06 00:01:18;;;;;;;3.45;3.10;;;;;;;19.50;81.40;101684.66;4975314;28;20047;-76
2022/09/06 00:03:45;;;;;;;3.28;3.00;;;;;;;19.47;81.46;101699.84;4974693;28;20543;-74
2022/09/06 00:06:15;;;;;;;3.30;3.00;;;;;;;19.44;81.24;101708.91;4975115;28;20043;-76
2022/09/06 00:08:43;;;;;;;4.63;3.40;;;;;;;19.39;80.98;101695.34;4973570;28;20090;-76
2022/09/06 00:11:10;;;;;;;3.35;3.05;;;;;;;19.38;81.08;101685.75;4974963;28;20047;-76
2022/09/06 00:13:37;;;;;;;4.47;3.92;;;;;;;19.33;80.42;101681.78;4974426;28;20102;-76
2022/09/06 00:16:09;;;;;;;4.03;3.67;;;;;;;19.31;80.62;101676.88;4974971;28;20043;-76
2022/09/06 00:18:36;;;;;;;4.45;4.03;;;;;;;19.29;80.54;101679.31;4974715;28;20118;-76
2022/09/06 00:21:11;;;;;;;4.25;3.85;;;;;;;19.28;80.99;101685.19;4974770;28;20393;-76
2022/09/06 00:23:38;;;;;;;4.90;4.00;;;;;;;19.29;80.92;101684.69;4974620;28;20114;-76
2022/09/06 00:26:04;;;;;;;8.20;4.07;;;;;;;19.30;80.42;101680.78;4974706;28;20055;-76
2022/09/06 00:28:31;;;;;;;4.22;3.85;;;;;;;19.29;81.18;101694.75;4974350;28;20102;-76
2022/09/06 00:30:57;;;;;;;4.18;3.78;;;;;;;19.27;81.97;101699.88;4974087;28;20547;-76
2022/09/06 00:33:24;;;;;;;3.92;3.63;;;;;;;19.26;82.24;101701.09;4974651;28;20063;-76
2022/09/06 00:35:57;;;;;;;4.72;4.18;;;;;;;19.26;81.91;101704.53;4974715;28;20103;-76
2022/09/06 00:38:23;;;;;;;4.43;4.07;;;;;;;19.24;82.25;101690.78;4973520;28;20048;-75
2022/09/06 00:40:50;;;;;;;3.80;3.63;;;;;;;19.25;82.36;101683.44;4974549;28;20051;-76
2022/09/06 00:43:16;;;;;;;4.40;4.10;;;;;;;19.21;83.05;101677.50;4988611;28;20547;-76
2022/09/06 00:45:43;;;;;;;4.35;3.97;;;;;;;19.15;83.16;101677.47;4974374;28;20047;-76
2022/09/06 00:48:10;;;;;;;5.10;4.03;;;;;;;19.14;82.67;101675.25;4974370;28;20089;-76
2022/09/06 00:50:36;;;;;;;8.00;3.80;;;;;;;19.16;82.44;101680.91;4974432;28;20047;-76
2022/09/06 00:53:03;;;;;;;4.40;3.80;;;;;;;19.16;82.79;101678.97;4974457;28;20055;-76
2022/09/06 00:55:29;;;;;;;5.47;4.00;;;;;;;19.17;82.21;101688.53;4973502;28;20102;-76
2022/09/06 00:57:56;;;;;;;5.32;4.60;;;;;;;19.18;82.42;101692.72;4973553;28;20062;-75
2022/09/06 01:00:23;;;;;;;3.83;3.63;;;;;;;19.12;84.10;101693.88;4974252;28;20075;-76
2022/09/06 01:02:49;;;;;;;4.45;3.75;;;;;;;19.08;84.83;101696.78;4974154;28;20571;-76
2022/09/06 01:05:16;;;;;;;4.75;3.75;;;;;;;19.05;84.21;101697.00;4974338;28;20039;-76
2022/09/06 01:07:52;;;;;;;5.05;3.97;;;;;;;19.03;84.35;101694.75;4974154;28;20050;-75
2022/09/06 01:10:35;;;;;;;6.05;3.92;;;;;;;19.02;84.31;101700.63;4974137;28;20111;-75
2022/09/06 01:13:33;;;;;;;5.47;3.90;;;;;;;18.99;84.61;101705.03;4974046;28;20047;-74
2022/09/06 01:16:22;;;;;;;4.00;3.67;;;;;;;18.99;84.95;101705.75;4974049;28;20043;-74
2022/09/06 01:19:06;;;;;;;4.20;3.83;;;;;;;18.94;84.72;101716.50;4974215;28;20052;-74
2022/09/06 01:21:51;;;;;;;4.85;4.43;;;;;;;18.92;84.41;101719.66;4972820;28;20484;-74
2022/09/06 01:24:46;;;;;;;6.18;4.38;;;;;;;18.92;84.07;101710.81;4988743;28;20083;-74
2022/09/06 01:27:19;;;;;;;5.40;4.90;;;;;;;18.86;84.35;101710.75;4973736;28;20102;-74
2022/09/06 01:29:59;;;;;;;5.13;4.63;;;;;;;18.83;84.01;101719.78;4974151;28;20047;-75
2022/09/06 01:32:35;;;;;;;5.05;4.75;;;;;;;18.78;84.45;101717.06;4972203;28;20055;-74
2022/09/06 01:35:14;;;;;;;5.75;5.10;;;;;;;18.75;85.46;101709.91;4973866;28;20051;-75
2022/09/06 01:37:41;;;;;;;5.53;5.22;;;;;;;18.71;85.71;101704.72;4973539;28;20043;-74
2022/09/06 01:40:08;;;;;;;5.75;5.20;;;;;;;18.67;85.80;101698.03;4973091;28;20047;-75
2022/09/06 01:42:37;;;;;;;6.35;5.75;;;;;;;18.65;86.23;101693.13;4973554;28;20087;-74
2022/09/06 01:45:13;;;;;;;6.82;5.15;;;;;;;18.64;86.20;101678.16;4973496;28;20110;-74
2022/09/06 01:47:40;;;;;;;6.13;5.68;;;;;;;18.62;86.13;101675.19;4972036;28;20059;-75
2022/09/06 01:50:17;;;;;;;8.57;5.75;;;;;;;18.61;87.20;101671.75;4973131;28;20050;-75
2022/09/06 01:53:04;;;;;;;6.68;5.93;;;;;;;18.63;86.57;101668.56;4972009;28;20054;-75
2022/09/06 01:55:38;;;;;;;15.15;6.63;;;;;;;18.62;86.68;101669.78;4973078;28;20051;-74
2022/09/06 01:58:26;;;;;;;7.25;6.63;;;;;;;18.59;87.35;101657.22;4973440;28;20098;-75
2022/09/06 02:01:37;;;;;;;10.20;6.43;;;;;;;18.58;86.74;101653.03;4973267;28;20055;-74
2022/09/06 02:04:22;;;;;;;7.53;6.85;;;;;;;18.55;87.15;101660.13;4932000;29;20155;-74
2022/09/06 02:06:55;;;;;;;7.15;6.47;;;;;;;18.48;88.29;101657.81;4916106;29;20052;-75
2022/09/06 02:09:25;;;;;;;7.05;6.38;;;;;;;18.48;88.08;101654.38;4931685;29;20493;-74
2022/09/06 02:11:58;;;;;;;6.65;6.22;;;;;;;18.49;87.78;101642.38;4916564;29;20533;-74
2022/09/06 02:14:34;;;;;;;6.95;6.13;;;;;;;18.49;87.84;101634.31;4932215;29;20047;-75
2022/09/06 02:17:03;;;;;;;6.85;6.30;;;;;;;18.43;88.46;101612.66;4932286;29;20056;-76
2022/09/06 02:19:47;;;;;;;7.45;6.78;;;;;;;18.40;87.92;101599.41;4932132;29;20048;-76
2022/09/06 02:22:18;;;;;;;10.32;6.63;;;;;;;18.36;88.13;101582.72;4932524;29;20513;-76
2022/09/06 02:24:49;;;;;;;7.27;6.57;;;;;;;18.30;88.52;101566.47;4931291;29;20265;-76
2022/09/06 02:27:16;;;;;;;6.95;6.43;;;;;;;18.24;88.76;101555.63;4932311;29;20052;-76
2022/09/06 02:29:43;;;;;;;7.03;6.32;;;;;;;18.21;88.78;101535.00;4931783;29;20533;-75
2022/09/06 02:32:16;;;;;;;6.57;6.00;;;;;;;18.16;88.76;101530.28;4931984;29;20514;-76
2022/09/06 02:34:45;;;;;;;7.13;6.50;;;;;;;18.07;88.77;101516.97;4951054;28;20051;-75
2022/09/06 02:37:12;;;;;;;6.55;5.90;;;;;;;18.04;89.13;101507.13;4970980;28;20052;-75
2022/09/06 02:39:39;;;;;;;6.72;6.13;;;;;;;18.03;89.00;101511.03;4972772;28;20047;-76
2022/09/06 02:42:11;;;;;;;8.05;7.32;;;;;;;18.04;89.39;101506.38;4972490;28;20556;-76
2022/09/06 02:44:38;;;;;;;7.78;7.03;;;;;;;18.01;89.27;101516.16;4972922;28;20095;-75
2022/09/06 02:47:04;;;;;;;8.27;7.53;;;;;;;18.00;89.39;101514.66;4987658;28;20428;-76
2022/09/06 02:49:31;;;;;;;8.85;7.93;;;;;;;18.02;89.20;101519.59;4972704;28;20051;-76
2022/09/06 02:51:57;;;;;;;8.88;8.18;;;;;;;18.03;89.99;101524.50;4972301;28;20047;-76
2022/09/06 02:54:24;;;;;;;9.70;8.35;;;;;;;18.01;89.70;101513.47;4972585;28;20047;-76
2022/09/06 02:56:50;;;;;;;9.38;8.23;;;;;;;18.00;89.86;101528.13;4972464;28;20048;-75
2022/09/06 02:59:17;;;;;;;13.30;8.65;;;;;;;18.01;90.12;101529.63;4971409;28;20082;-75
2022/09/06 03:01:44;;;;;;;9.88;7.88;;;;;;;18.01;90.16;101526.94;4972625;28;20079;-76
2022/09/06 03:04:11;;;;;;;9.27;7.85;;;;;;;17.97;90.44;101527.16;4972398;28;20534;-76
2022/09/06 03:06:37;;;;;;;8.45;7.75;;;;;;;17.99;90.11;101518.59;4971967;28;20408;-75
2022/09/06 03:09:04;;;;;;;8.98;8.00;;;;;;;18.01;90.32;101518.84;4972529;28;20496;-76
2022/09/06 03:11:30;;;;;;;10.48;7.55;;;;;;;18.00;90.07;101525.44;4972311;28;20047;-75
2022/09/06 03:13:57;;;;;;;8.77;7.93;;;;;;;17.98;90.20;101522.50;4972364;28;20046;-75
2022/09/06 03:16:23;;;;;;;8.90;8.20;;;;;;;17.96;90.04;101522.97;4972486;28;20051;-76
2022/09/06 03:18:50;;;;;;;9.45;8.48;;;;;;;17.91;90.65;101518.25;4973721;28;20102;-76
2022/09/06 03:21:16;;;;;;;8.88;7.85;;;;;;;17.85;90.66;101524.78;4975645;28;20107;-75
2022/09/06 03:23:44;;;;;;;9.27;8.32;;;;;;;17.81;90.69;101522.28;4975207;28;20523;-76
2022/09/06 03:26:11;;;;;;;8.55;7.72;;;;;;;17.85;90.42;101527.47;4975610;28;21071;-76
2022/09/06 03:28:38;;;;;;;10.45;7.80;;;;;;;17.87;90.46;101533.88;4975356;28;20044;-76
2022/09/06 03:31:05;;;;;;;8.38;7.55;;;;;;;17.88;90.39;101532.66;4975499;28;20055;-75
2022/09/06 03:33:31;;;;;;;8.05;7.45;;;;;;;17.87;90.94;101538.53;4975386;28;20103;-75
2022/09/06 03:36:00;;;;;;;8.48;7.50;;;;;;;17.85;90.82;101544.38;4975136;28;20047;-76
2022/09/06 03:38:28;;;;;;;8.10;7.30;;;;;;;17.83;90.43;101543.38;4975134;28;20051;-76
2022/09/06 03:40:55;;;;;;;8.02;7.22;;;;;;;17.81;90.90;101545.78;4973970;28;20056;-76
2022/09/06 03:43:23;;;;;;;7.90;7.25;;;;;;;17.79;90.32;101538.19;4975205;28;20051;-76
2022/09/06 03:45:52;;;;;;;8.00;7.28;;;;;;;17.75;90.40;101547.66;4975290;28;20103;-76
2022/09/06 03:48:20;;;;;;;7.47;6.93;;;;;;;17.72;90.09;101537.81;4974079;28;20052;-76
2022/09/06 03:50:50;;;;;;;11.43;7.38;;;;;;;17.67;90.57;101539.97;4975030;28;20079;-76
2022/09/06 03:53:17;;;;;;;7.75;7.07;;;;;;;17.65;90.97;101541.66;4975183;28;20050;-76
2022/09/06 03:55:45;;;;;;;8.00;7.30;;;;;;;17.62;90.92;101551.38;4975172;28;20047;-76
2022/09/06 03:58:12;;;;;;;7.78;7.15;;;;;;;17.59;90.43;101560.38;4975167;28;20039;-76
2022/09/06 04:00:38;;;;;;;8.18;7.47;;;;;;;17.55;90.83;101556.44;4975259;28;20047;-76
2022/09/06 04:03:05;;;;;;;7.20;6.53;;;;;;;17.48;91.59;101554.13;4974950;28;20574;-76
2022/09/06 04:05:32;;;;;;;7.57;7.05;;;;;;;17.42;91.75;101558.69;4974362;28;20051;-77
2022/09/06 04:07:58;;;;;;;7.35;6.63;;;;;;;17.39;91.51;101563.03;4975009;28;20555;-76
2022/09/06 04:10:24;;;;;;;7.15;6.55;;;;;;;17.35;92.21;101575.94;4973499;28;20111;-76
2022/09/06 04:12:51;;;;;;;7.28;6.75;;;;;;;17.32;91.92;101585.69;4974917;28;20043;-76
2022/09/06 04:15:18;;;;;;;7.50;6.85;;;;;;;17.30;92.34;101571.97;4957619;28;20550;-75
2022/09/06 04:17:45;;;;;;;7.13;6.53;;;;;;;17.29;92.46;101570.47;4974858;28;20500;-76
2022/09/06 04:20:12;;;;;;;7.88;7.18;;;;;;;17.28;92.97;101576.31;4974158;28;20047;-76
2022/09/06 04:22:39;;;;;;;7.70;7.00;;;;;;;17.28;92.09;101582.44;4974643;28;20075;-76
2022/09/06 04:25:06;;;;;;;7.97;6.55;;;;;;;17.28;92.87;101577.06;4974497;28;20584;-76
2022/09/06 04:27:33;;;;;;;7.53;6.93;;;;;;;17.22;93.06;101572.78;4973116;28;20504;-76
2022/09/06 04:29:59;;;;;;;7.45;6.80;;;;;;;17.21;92.82;101582.06;4973580;28;20122;-75
2022/09/06 04:32:26;;;;;;;6.93;6.43;;;;;;;17.24;92.92;101575.75;4974552;28;20051;-76
2022/09/06 04:34:52;;;;;;;9.98;6.63;;;;;;;17.23;93.07;101585.03;4973865;28;20051;-76
2022/09/06 04:37:19;;;;;;;6.75;6.20;;;;;;;17.24;92.62;101583.84;4974914;28;20051;-76
2022/09/06 04:39:45;;;;;;;7.13;6.53;;;;;;;17.20;92.91;101592.09;4974921;28;20047;-76
2022/09/06 04:42:12;;;;;;;6.45;5.88;;;;;;;17.15;93.04;101603.53;4974386;28;20468;-76
2022/09/06 04:44:39;;;;;;;6.97;6.40;;;;;;;17.12;93.20;101604.44;4972795;28;20055;-76
2022/09/06 04:47:13;;;;;;;6.53;6.00;;;;;;;17.15;93.02;101603.53;4974198;28;20087;-75
2022/09/06 04:49:43;;;;;;;6.38;5.82;;;;;;;17.15;93.44;101600.84;4974111;28;20567;-76
2022/09/06 04:52:10;;;;;;;6.90;6.38;;;;;;;17.16;93.48;101601.59;4974229;28;20095;-76
2022/09/06 04:54:37;;;;;;;6.72;6.05;;;;;;;17.16;92.49;101602.31;4974140;28;20508;-76
2022/09/06 04:57:03;;;;;;;6.10;5.70;;;;;;;17.20;92.67;101618.25;4973124;28;20048;-76
2022/09/06 04:59:30;;;;;;;6.93;6.32;;;;;;;17.21;93.03;101614.34;4974323;28;20044;-76
2022/09/06 05:01:57;;;;;;;9.57;6.25;;;;;;;17.20;93.33;101618.25;4973774;28;20114;-73
2022/09/06 05:04:23;;;;;;;8.18;6.60;;;;;;;17.22;92.89;101621.22;4973560;28;20560;-76
2022/09/06 05:06:59;;;;;;;7.47;6.93;;;;;;;17.23;92.42;101617.31;4973973;28;20142;-76
2022/09/06 05:09:26;;;;;;;8.50;7.13;;;;;;;17.27;92.78;101615.19;4973827;28;20048;-75
2022/09/06 05:11:52;;;;;;;8.52;7.45;;;;;;;17.26;92.44;101617.13;4973855;28;20075;-76
2022/09/06 05:14:19;;;;;;;7.65;6.90;;;;;;;17.25;93.09;101626.41;4974130;28;20449;-76
2022/09/06 05:16:45;;;;;;;7.88;7.07;;;;;;;17.25;92.60;101620.28;4973838;28;20550;-76
2022/09/06 05:19:12;;;;;;;7.00;6.50;;;;;;;17.25;92.89;101628.38;4973975;28;20050;-75
2022/09/06 05:21:38;;;;;;;7.72;6.95;;;;;;;17.22;92.99;101635.41;4973952;28;20103;-75
2022/09/06 05:24:05;;;;;;;7.20;6.60;;;;;;;17.22;92.18;101630.03;4988245;28;20055;-76
2022/09/06 05:26:31;;;;;;;7.53;6.63;;;;;;;17.22;92.95;101634.69;4973687;28;20079;-76
2022/09/06 05:28:58;;;;;;;8.80;6.65;;;;;;;17.22;92.44;101631.97;4973528;28;20055;-76
2022/09/06 05:31:29;;;;;;;7.10;6.70;;;;;;;17.21;92.52;101635.88;4973297;28;20152;-75
2022/09/06 05:33:56;;;;;;;8.85;7.95;;;;;;;17.21;93.03;101639.31;4973826;28;20079;-76
2022/09/06 05:36:24;;;;;;;7.90;7.10;;;;;;;17.25;92.04;101650.63;4973830;28;20560;-75
2022/09/06 05:38:52;;;;;;;7.50;6.90;;;;;;;17.32;91.44;101646.84;4973505;28;20527;-75
2022/09/06 05:41:19;;;;;;;9.25;7.03;;;;;;;17.34;91.12;101649.81;4973308;28;20054;-74
2022/09/06 05:43:45;;;;;;;7.95;7.25;;;;;;;17.39;91.07;101651.84;4973589;28;20048;-75
2022/09/06 05:46:12;;;;;;;9.35;7.30;;;;;;;17.45;90.71;101657.34;4972848;28;20047;-75
2022/09/06 05:48:39;;;;;;;8.02;7.00;;;;;;;17.44;90.68;101653.91;4973426;28;20126;-75
2022/09/06 05:51:13;;;;;;;11.15;7.97;;;;;;;17.44;90.95;101653.16;4973515;28;20583;-74
2022/09/06 05:53:42;;;;;;;8.45;7.82;;;;;;;17.45;91.30;101641.91;4973456;28;20055;-75
2022/09/06 05:56:10;;;;;;;8.95;8.05;;;;;;;17.50;91.34;101641.28;4973351;28;20102;-74
2022/09/06 05:58:37;;;;;;;9.20;7.90;;;;;;;17.96;90.22;101638.06;4973195;28;20055;-73
2022/09/06 06:01:17;;;;;;;12.25;7.78;;;;;;;18.55;86.99;101630.47;4971770;28;20039;-75
2022/09/06 06:03:55;;;;;;;8.68;7.45;;;;;;;18.39;86.33;101638.38;4973268;28;20047;-73
2022/09/06 06:06:23;;;;;;;8.50;7.72;;;;;;;18.96;85.16;101641.97;4972977;28;20055;-74
2022/09/06 06:08:50;;;;;;;8.02;7.25;;;;;;;20.22;79.32;101646.56;4973179;28;20039;-74
2022/09/06 06:11:17;;;;;;;8.88;8.00;;;;;;;21.02;75.42;101646.31;4973531;28;20082;-74
2022/09/06 06:13:43;;;;;;;9.05;8.13;;;;;;;21.54;72.89;101647.34;4987999;28;20536;-75
2022/09/06 06:16:17;;;;;;;8.95;8.05;;;;;;;22.08;71.19;101648.97;4971148;28;20527;-74
2022/09/06 06:18:45;;;;;;;20.50;8.32;;;;;;;22.31;69.57;101657.78;4972991;28;20082;-74
2022/09/06 06:21:22;;;;;;;11.55;8.63;;;;;;;22.23;68.96;101652.88;4973307;28;20075;-74
2022/09/06 06:23:52;;;;;;;9.30;8.15;;;;;;;22.14;69.25;101650.44;4972492;28;20107;-74
2022/09/06 06:26:19;;;;;;;11.25;8.20;;;;;;;22.02;69.70;101642.84;4973098;28;20051;-74
2022/09/06 06:28:45;;;;;;;8.38;7.60;;;;;;;21.88;70.17;101639.16;4973127;28;20139;-74
2022/09/06 06:31:13;;;;;;;8.23;7.63;;;;;;;21.84;70.38;101631.28;4972150;28;20122;-74
2022/09/06 06:33:40;;;;;;;9.35;7.85;;;;;;;21.78;70.71;101633.28;4972818;28;20055;-73
2022/09/06 06:36:22;;;;;;;8.88;8.07;;;;;;;21.61;71.68;101635.25;4972936;28;20055;-74
2022/09/06 06:38:50;;;;;;;8.68;7.85;;;;;;;21.20;73.17;101635.75;4971782;28;20501;-74
2022/09/06 06:41:18;;;;;;;10.10;8.00;;;;;;;20.92;74.82;101635.72;4972908;28;20047;-74
2022/09/06 06:43:44;;;;;;;12.13;7.85;;;;;;;20.75;75.60;101632.28;4972070;28;20047;-74
2022/09/06 06:46:14;;;;;;;8.18;7.45;;;;;;;20.80;76.05;101628.81;4972614;28;20098;-74
2022/09/06 06:48:44;;;;;;;8.80;7.68;;;;;;;20.81;76.08;101624.88;4972534;28;20630;-73
2022/09/06 06:51:13;;;;;;;7.97;7.32;;;;;;;20.81;75.83;101622.16;4972776;28;20381;-74
2022/09/06 06:53:40;;;;;;;8.68;7.97;;;;;;;20.79;75.46;101621.22;4972425;28;20395;-74
2022/09/06 06:56:16;;;;;;;8.98;8.18;;;;;;;20.76;76.53;101624.91;4975993;28;20051;-74
2022/09/06 06:58:44;;;;;;;8.68;7.97;;;;;;;20.75;76.19;101621.44;4973937;28;20058;-73
2022/09/06 07:01:12;;;;;;;9.75;8.82;;;;;;;20.66;75.74;101621.66;4975981;28;20472;-74
2022/09/06 07:03:39;;;;;;;9.20;8.30;;;;;;;20.60;75.95;101618.22;4975716;28;20051;-74
2022/09/06 07:06:05;;;;;;;9.85;8.77;;;;;;;20.58;75.96;101604.44;4975886;28;20052;-74
2022/09/06 07:08:38;;;;;;;10.05;8.90;;;;;;;20.59;76.68;101609.34;4975847;28;20047;-74
2022/09/06 07:11:07;;;;;;;13.82;9.50;;;;;;;20.63;75.76;101607.16;4975431;28;20054;-74
2022/09/06 07:13:33;;;;;;;10.85;9.38;;;;;;;20.71;75.87;101601.28;4975082;28;20504;-74
2022/09/06 07:16:17;;;;;;;11.10;9.05;;;;;;;20.79;75.54;101602.28;4975720;28;20047;-75
2022/09/06 07:18:44;;;;;;;9.63;8.73;;;;;;;20.80;75.61;101595.59;4974324;28;20047;-74
2022/09/06 07:21:13;;;;;;;11.68;9.82;;;;;;;20.76;75.57;101592.44;4975485;28;20491;-74
2022/09/06 07:24:00;;;;;;;17.08;9.93;;;;;;;20.87;75.99;101595.13;4974835;28;20115;-74
2022/09/06 07:26:29;;;;;;;14.70;9.38;;;;;;;20.96;75.32;101595.63;4975443;28;20040;-74
2022/09/06 07:28:58;;;;;;;10.98;9.95;;;;;;;21.05;74.95;101591.22;4975157;28;20133;-74
2022/09/06 07:31:26;;;;;;;10.93;9.65;;;;;;;21.10;74.75;101585.06;4974224;28;20047;-74
2022/09/06 07:34:13;;;;;;;13.05;9.65;;;;;;;21.21;75.27;101601.31;4975309;28;20240;-74
2022/09/06 07:36:39;;;;;;;11.50;10.00;;;;;;;21.37;73.46;101591.72;4975405;28;20043;-73
2022/09/06 07:39:06;;;;;;;15.20;9.65;;;;;;;21.47;73.26;101599.09;4974318;28;20480;-72
2022/09/06 07:41:32;;;;;;;13.23;9.43;;;;;;;21.51;72.82;101602.28;4975391;28;20043;-72
2022/09/06 07:43:59;;;;;;;10.88;9.77;;;;;;;21.66;73.21;101606.69;4973775;28;20126;-72
2022/09/06 07:46:25;;;;;;;11.38;9.40;;;;;;;21.73;71.65;101601.50;4975086;28;20772;-73
2022/09/06 07:48:52;;;;;;;11.18;9.90;;;;;;;21.80;71.52;101609.13;4975300;28;20043;-73
2022/09/06 07:51:19;;;;;;;12.95;9.98;;;;;;;21.85;71.14;101610.34;4975619;28;20047;-71
2022/09/06 07:53:51;;;;;;;15.65;9.00;;;;;;;21.89;70.05;101613.53;4973450;28;20047;-72
2022/09/06 07:56:37;;;;;;;;;;;;;;;22.05;71.21;101614.72;4973659;28;20126;-72
2022/09/06 07:59:04;;;;;;;11.00;8.93;;;;;;;22.01;68.89;101612.28;4975108;28;19926;-71
2022/09/06 08:01:38;;;;;;;10.05;8.70;;;;;;;22.10;69.82;101611.25;4974779;28;20208;-71
2022/09/06 08:04:14;;;;;;;10.10;9.10;;;;;;;22.21;69.01;101613.94;4974728;28;20439;-71
2022/09/06 08:06:43;;;;;;;9.93;9.13;;;;;;;22.32;67.97;101605.03;4974976;28;20052;-72
2022/09/06 08:09:29;;;;;;;15.43;8.85;;;;;;;22.41;67.86;101604.69;4973631;28;20138;-75
2022/09/06 08:11:56;;;;;;;10.20;9.20;;;;;;;22.44;67.68;101592.84;4972630;28;20051;-74
2022/09/06 08:14:22;;;;;;;9.88;8.93;;;;;;;22.62;69.09;101592.25;4974647;28;20111;-75
2022/09/06 08:16:49;;;;;;;10.27;9.25;;;;;;;22.80;67.90;101591.66;4973634;28;20047;-72
2022/09/06 08:19:17;;;;;;;10.10;9.20;;;;;;;22.85;67.68;101590.16;4975112;28;20095;-72
2022/09/06 08:21:43;;;;;;;9.50;8.63;;;;;;;22.92;65.57;101587.63;4974899;28;20102;-73
2022/09/06 08:24:10;;;;;;;9.25;8.43;;;;;;;22.98;66.67;101587.59;4974013;28;20059;-73
2022/09/06 08:26:46;;;;;;;9.15;8.25;;;;;;;23.15;65.63;101590.19;4973644;28;20051;-73
2022/09/06 08:29:13;;;;;;;9.18;8.38;;;;;;;23.24;64.52;101584.41;4974458;28;20043;-74
2022/09/06 08:31:41;;;;;;;16.50;8.73;;;;;;;23.26;64.95;101582.66;4974689;28;20051;-73
2022/09/06 08:34:08;;;;;;;10.43;8.38;;;;;;;23.31;63.42;101575.69;4974127;28;20524;-74
2022/09/06 08:36:35;;;;;;;12.27;8.43;;;;;;;23.36;63.98;101580.34;4974367;28;20107;-73
2022/09/06 08:39:04;;;;;;;8.45;7.55;;;;;;;23.31;63.94;101578.41;4972917;28;20047;-74
2022/09/06 08:41:43;;;;;;;9.15;8.32;;;;;;;23.50;64.67;101579.22;4973681;28;20043;-73
2022/09/06 08:44:23;;;;;;;9.00;7.85;;;;;;;23.61;63.80;101572.94;4974259;28;20039;-73
2022/09/06 08:47:11;;;;;;;9.25;8.35;;;;;;;23.61;63.10;101570.22;4974128;28;20138;-77
2022/09/06 08:49:46;;;;;;;9.20;8.30;;;;;;;23.61;62.82;101570.97;4972767;28;20062;-74
2022/09/06 08:52:22;;;;;;;8.90;8.05;;;;;;;23.63;62.43;101564.28;4974136;28;20106;-73
2022/09/06 08:55:01;;;;;;;8.45;7.65;;;;;;;23.81;62.13;101571.75;4973981;28;20107;-72
2022/09/06 08:57:36;;;;;;;8.25;7.43;;;;;;;23.99;61.26;101562.88;4974206;28;20051;-72
2022/09/06 09:00:10;;;;;;;9.75;7.55;;;;;;;24.04;59.70;101555.88;4974074;28;20496;-73
2022/09/06 09:02:45;;;;;;;8.48;7.00;;;;;;;24.18;60.79;101558.16;4974182;28;20054;-72
2022/09/06 09:05:33;;;;;;;10.93;7.03;;;;;;;24.42;60.26;101562.78;4973582;28;20055;-72
2022/09/06 09:08:19;;;;;;;12.48;6.90;;;;;;;24.57;59.94;101562.34;4974062;28;20047;-73
2022/09/06 09:11:01;;;;;;;9.38;6.68;;;;;;;24.70;58.62;101567.09;4973858;28;20461;-73
2022/09/06 09:13:58;;;;;;;7.03;6.43;;;;;;;24.82;58.04;101571.09;4973529;28;20047;-73
2022/09/06 09:16:24;;;;;;;6.32;5.85;;;;;;;24.85;57.44;101561.91;4973430;28;20051;-74
2022/09/06 09:18:54;;;;;;;7.38;6.65;;;;;;;24.96;56.26;101566.47;4972393;28;20558;-74
2022/09/06 09:21:23;;;;;;;8.10;6.25;;;;;;;25.00;56.52;101564.91;4973797;28;20095;-73
2022/09/06 09:24:00;;;;;;;7.47;6.88;;;;;;;25.03;55.85;101563.13;4972861;28;20497;-73
2022/09/06 09:26:33;;;;;;;8.73;6.22;;;;;;;25.07;56.43;101566.28;4973367;28;20054;-73
2022/09/06 09:29:18;;;;;;;8.45;6.43;;;;;;;25.14;56.51;101558.22;4972168;28;20110;-74
2022/09/06 09:31:53;;;;;;;8.75;5.82;;;;;;;25.19;54.79;101548.50;4972410;28;20489;-74
2022/09/06 09:34:32;;;;;;;6.70;6.15;;;;;;;25.20;54.91;101541.75;4972607;28;20047;-74
2022/09/06 09:37:12;;;;;;;6.05;5.53;;;;;;;25.34;55.58;101548.69;4972845;28;20678;-74
2022/09/06 09:39:59;;;;;;;6.50;5.55;;;;;;;25.47;55.02;101548.69;4970812;28;20039;-74
2022/09/06 09:42:36;;;;;;;6.72;6.07;;;;;;;25.63;55.16;101559.78;4972539;28;20479;-74
2022/09/06 09:45:24;;;;;;;6.20;5.50;;;;;;;25.91;54.46;101554.56;4972297;28;20055;-74
2022/09/06 09:47:51;;;;;;;10.82;5.65;;;;;;;26.07;53.94;101558.16;4973587;28;20456;-74
2022/09/06 09:50:26;;;;;;;7.22;6.55;;;;;;;26.24;52.53;101562.00;4988372;28;20083;-74
2022/09/06 09:52:54;;;;;;;9.30;6.43;;;;;;;26.25;52.70;101557.28;4955157;28;20114;-74
2022/09/06 09:55:23;;;;;;;12.90;6.78;;;;;;;26.31;52.15;101554.47;4973210;28;20047;-75
2022/09/06 09:57:52;;;;;;;7.78;7.25;;;;;;;26.25;53.08;101558.03;4973147;28;20508;-74
2022/09/06 10:00:34;;;;;;;7.90;7.10;;;;;;;26.49;53.77;101556.25;4973360;28;20071;-74
2022/09/06 10:03:11;;;;;;;7.13;6.45;;;;;;;26.66;53.02;101559.34;4973240;28;20099;-74
2022/09/06 10:05:39;;;;;;;6.85;6.28;;;;;;;26.67;51.97;101555.34;4971567;28;20047;-74
2022/09/06 10:08:11;;;;;;;7.10;6.22;;;;;;;26.83;52.16;101553.47;4971119;28;20583;-75
2022/09/06 10:10:46;;;;;;;8.73;7.07;;;;;;;26.82;51.25;101558.19;4973094;28;20102;-74
2022/09/06 10:13:24;;;;;;;6.75;6.15;;;;;;;26.65;51.95;101557.88;4971510;28;20047;-74
2022/09/06 10:15:52;;;;;;;7.00;6.50;;;;;;;26.63;52.10;101557.69;4972990;28;20114;-74
2022/09/06 10:18:19;;;;;;;7.68;6.82;;;;;;;26.73;51.28;101549.75;4973020;28;20047;-74
2022/09/06 10:20:55;;;;;;;7.00;5.93;;;;;;;26.74;51.04;101551.22;4973280;28;20103;-74
2022/09/06 10:23:36;;;;;;;8.10;4.68;;;;;;;26.91;50.37;101557.72;4971968;28;20443;-73
2022/09/06 10:26:42;;;;;;;4.55;4.00;;;;;;;26.91;49.70;101559.72;4972194;28;20890;-75
2022/09/06 10:29:09;;;;;;;5.32;3.60;;;;;;;27.07;50.07;101544.19;4971815;28;20102;-73
2022/09/06 10:31:47;;;;;;;7.50;3.78;;;;;;;27.16;50.15;101546.47;4972916;28;20117;-74
2022/09/06 10:34:23;;;;;;;5.20;4.10;;;;;;;26.96;49.52;101552.69;4973282;28;20051;-72
2022/09/06 10:37:06;;;;;;;5.07;3.67;;;;;;;26.57;51.25;101548.88;4972615;28;20074;-72
2022/09/06 10:40:01;;;;;;;6.55;4.63;;;;;;;26.44;51.75;101555.13;4972779;28;20047;-73
2022/09/06 10:42:44;;;;;;;4.10;3.80;;;;;;;26.71;51.65;101549.56;4972692;28;20074;-72
2022/09/06 10:45:19;;;;;;;4.00;3.55;;;;;;;26.99;50.84;101551.59;4972767;28;20047;-72
2022/09/06 10:47:49;;;;;;;4.15;3.35;;;;;;;26.85;50.36;101562.59;4971303;28;20405;-72
2022/09/06 10:50:16;;;;;;;4.47;3.20;;;;;;;26.80;50.13;101554.53;4972075;28;20047;-72
2022/09/06 10:52:47;;;;;;;2.97;2.63;;;;;;;26.95;49.70;101562.13;4970993;28;20055;-72
2022/09/06 10:55:17;;;;;;;3.13;2.88;;;;;;;27.19;49.45;101567.94;4971383;28;20079;-72
2022/09/06 10:57:54;;;;;;;10.43;8.13;;;;;;;27.26;48.94;101574.00;4972128;28;20055;-72
2022/09/06 11:00:46;;;;;;;3.72;3.53;;;;;;;27.13;49.37;101572.84;4970780;28;20054;-73
2022/09/06 11:03:25;;;;;;;3.35;3.05;;;;;;;27.26;51.08;101561.06;4972337;28;20158;-73
2022/09/06 11:06:12;;;;;;;3.65;3.20;;;;;;;27.34;49.19;101561.84;4971270;28;20043;-73
2022/09/06 11:08:48;;;;;;;3.05;2.83;;;;;;;27.42;49.55;101559.91;4972032;28;20115;-73
2022/09/06 11:11:25;;;;;;;2.53;2.33;;;;;;;27.50;50.61;101566.16;4972556;28;20054;-73
2022/09/06 11:13:51;;;;;;;7.03;2.88;;;;;;;27.48;48.59;101565.97;4972402;28;20047;-73
2022/09/06 11:16:30;;;;;;;2.92;2.72;;;;;;;27.33;49.23;101563.13;4971069;28;20051;-73
2022/09/06 11:19:13;;;;;;;3.10;2.88;;;;;;;27.06;50.14;101567.34;4972009;28;20070;-73
2022/09/06 11:22:06;;;;;;;4.25;2.70;;;;;;;26.84;50.50;101574.78;4972356;28;20660;-73
2022/09/06 11:24:35;;;;;;;2.70;2.38;;;;;;;27.05;49.90;101569.34;4971384;28;20086;-73
2022/09/06 11:27:33;;;;;;;5.30;2.85;;;;;;;27.38;50.33;101584.13;4971784;28;20055;-74
2022/09/06 11:30:04;;;;;;;5.22;2.38;;;;;;;27.54;49.26;101579.47;4972009;28;20048;-75
2022/09/06 11:32:49;;;;;;;2.75;2.55;;;;;;;27.65;48.67;101583.91;4971479;28;20051;-75
2022/09/06 11:35:28;;;;;;;6.15;4.22;;;;;;;27.69;47.42;101581.56;4971422;28;20492;-75
2022/09/06 11:38:04;;;;;;;3.17;2.50;;;;;;;27.72;48.37;101583.22;4971852;28;20048;-75
2022/09/06 11:40:37;;;;;;;5.57;3.05;;;;;;;27.62;48.55;101577.53;4973210;28;20042;-75
2022/09/06 11:43:03;;;;;;;7.65;2.95;;;;;;;27.61;49.74;101581.53;4975189;28;20043;-75
2022/09/06 11:45:50;;;;;;;3.42;3.10;;;;;;;27.50;49.62;101582.56;4975257;28;20051;-75